createdAt,value
2022-10-09T00:01:14.761Z,95.89
2022-10-09T00:03:43.792Z,96.19
2022-10-09T00:06:13.084Z,96.38
2022-10-09T00:08:40.245Z,96.67
2022-10-09T00:11:08.283Z,96.99
2022-10-09T00:13:35.929Z,97.21
2022-10-09T00:16:07.860Z,97.29
2022-10-09T00:18:35.272Z,97.34
2022-10-09T00:21:02.577Z,97.27
2022-10-09T00:23:29.537Z,97.19
2022-10-09T00:25:58.760Z,97.23
2022-10-09T00:28:27.554Z,97.15
2022-10-09T00:30:54.734Z,97.04
2022-10-09T00:33:22.005Z,96.82
2022-10-09T00:35:49.127Z,96.88
2022-10-09T00:38:16.307Z,96.89
2022-10-09T00:40:43.082Z,96.83
2022-10-09T00:43:18.213Z,96.83
2022-10-09T00:45:51.600Z,97.00
2022-10-09T00:48:18.913Z,96.95
2022-10-09T00:50:50.730Z,97.63
2022-10-09T00:53:20.379Z,97.36
2022-10-09T00:55:47.373Z,97.27
2022-10-09T00:58:14.628Z,97.83
2022-10-09T01:00:41.821Z,98.00
2022-10-09T01:03:08.783Z,97.86
2022-10-09T01:06:11.517Z,97.90
2022-10-09T01:08:45.363Z,99.13
2022-10-09T01:11:12.210Z,98.41
2022-10-09T01:13:54.099Z,98.58
2022-10-09T01:16:27.018Z,98.51
2022-10-09T01:19:01.178Z,98.69
2022-10-09T01:21:44.003Z,98.92
2022-10-09T01:24:38.402Z,98.69
2022-10-09T01:27:09.669Z,98.59
2022-10-09T01:29:41.300Z,98.30
2022-10-09T01:32:09.670Z,99.04
2022-10-09T01:34:38.603Z,98.98
2022-10-09T01:37:06.071Z,99.01
2022-10-09T01:39:34.653Z,99.06
2022-10-09T01:42:01.705Z,98.80
2022-10-09T01:44:30.452Z,98.69
2022-10-09T01:47:00.246Z,98.54
2022-10-09T01:49:27.064Z,98.28
2022-10-09T01:52:01.594Z,98.14
2022-10-09T01:54:39.928Z,98.30
2022-10-09T01:57:08.680Z,98.19
2022-10-09T01:59:39.130Z,98.11
2022-10-09T02:02:07.695Z,98.46
2022-10-09T02:04:37.402Z,99.94
2022-10-09T02:07:05.046Z,100.00
2022-10-09T02:09:32.582Z,99.99
2022-10-09T02:12:02.564Z,100.00
2022-10-09T02:14:29.353Z,100.00
2022-10-09T02:17:04.853Z,100.00
2022-10-09T02:19:37.463Z,100.00
2022-10-09T02:22:19.191Z,100.00
2022-10-09T02:24:46.478Z,99.83
2022-10-09T02:27:13.738Z,99.57
2022-10-09T02:29:45.226Z,99.48
2022-10-09T02:32:12.550Z,99.32
2022-10-09T02:34:39.387Z,99.26
2022-10-09T02:37:06.937Z,99.25
2022-10-09T02:39:33.839Z,99.08
2022-10-09T02:42:00.668Z,99.14
2022-10-09T02:44:27.644Z,99.16
2022-10-09T02:46:54.436Z,99.21
2022-10-09T02:49:22.010Z,99.01
2022-10-09T02:51:48.803Z,98.97
2022-10-09T02:54:15.644Z,98.81
2022-10-09T02:56:42.467Z,98.79
2022-10-09T02:59:09.328Z,98.83
2022-10-09T03:01:36.331Z,98.62
2022-10-09T03:04:03.750Z,98.53
2022-10-09T03:06:30.749Z,98.49
2022-10-09T03:08:57.647Z,98.58
2022-10-09T03:11:25.297Z,99.15
2022-10-09T03:13:52.502Z,98.95
2022-10-09T03:16:21.700Z,99.25
2022-10-09T03:18:49.231Z,99.30
2022-10-09T03:21:18.435Z,99.39
2022-10-09T03:23:45.358Z,99.71
2022-10-09T03:26:15.351Z,100.00
2022-10-09T03:28:45.647Z,100.00
2022-10-09T03:31:22.579Z,100.00
2022-10-09T03:33:59.350Z,100.00
2022-10-09T03:36:26.302Z,100.00
2022-10-09T03:38:53.066Z,100.00
2022-10-09T03:41:19.854Z,100.00
2022-10-09T03:43:46.642Z,100.00
2022-10-09T03:46:13.557Z,100.00
2022-10-09T03:48:40.366Z,100.00
2022-10-09T03:51:07.443Z,100.00
2022-10-09T03:53:34.412Z,100.00
2022-10-09T03:56:01.291Z,100.00
2022-10-09T03:58:28.146Z,100.00
2022-10-09T04:00:55.203Z,100.00
2022-10-09T04:03:22.074Z,100.00
2022-10-09T04:05:48.904Z,100.00
2022-10-09T04:08:16.574Z,100.00
2022-10-09T04:10:43.745Z,100.00
2022-10-09T04:13:10.535Z,100.00
2022-10-09T04:15:37.679Z,100.00
2022-10-09T04:18:04.806Z,100.00
2022-10-09T04:20:31.883Z,100.00
2022-10-09T04:22:58.757Z,100.00
2022-10-09T04:25:25.608Z,100.00
2022-10-09T04:27:52.431Z,100.00
2022-10-09T04:30:19.341Z,100.00
2022-10-09T04:32:48.387Z,100.00
2022-10-09T04:35:16.781Z,100.00
2022-10-09T04:37:43.767Z,100.00
2022-10-09T04:40:10.936Z,100.00
2022-10-09T04:42:37.883Z,100.00
2022-10-09T04:45:05.209Z,100.00
2022-10-09T04:47:32.077Z,100.00
2022-10-09T04:49:58.839Z,100.00
2022-10-09T04:52:26.359Z,100.00
2022-10-09T04:54:53.200Z,100.00
2022-10-09T04:57:20.067Z,100.00
2022-10-09T04:59:47.183Z,100.00
2022-10-09T05:02:14.130Z,100.00
2022-10-09T05:04:40.999Z,100.00
2022-10-09T05:07:07.877Z,100.00
2022-10-09T05:09:34.729Z,100.00
2022-10-09T05:12:01.794Z,100.00
2022-10-09T05:14:28.584Z,100.00
2022-10-09T05:17:13.218Z,100.00
2022-10-09T05:19:41.216Z,100.00
2022-10-09T05:22:08.078Z,100.00
2022-10-09T05:24:34.958Z,100.00
2022-10-09T05:27:01.839Z,100.00
2022-10-09T05:29:28.667Z,100.00
2022-10-09T05:31:57.986Z,100.00
2022-10-09T05:34:24.833Z,100.00
2022-10-09T05:36:51.784Z,100.00
2022-10-09T05:39:18.660Z,100.00
2022-10-09T05:41:45.601Z,100.00
2022-10-09T05:44:12.437Z,100.00
2022-10-09T05:46:39.352Z,100.00
2022-10-09T05:49:06.405Z,100.00
2022-10-09T05:51:36.136Z,100.00
2022-10-09T05:54:03.589Z,99.38
2022-10-09T05:56:31.323Z,97.96
2022-10-09T05:59:00.558Z,96.89
2022-10-09T06:01:30.001Z,96.91
2022-10-09T06:04:00.668Z,96.85
2022-10-09T06:06:29.398Z,96.26
2022-10-09T06:08:56.533Z,95.87
2022-10-09T06:11:31.700Z,94.46
2022-10-09T06:14:03.153Z,93.04
2022-10-09T06:16:33.559Z,92.15
2022-10-09T06:19:00.686Z,92.02
2022-10-09T06:21:28.164Z,90.08
2022-10-09T06:23:59.491Z,89.47
2022-10-09T06:26:29.141Z,88.67
2022-10-09T06:28:58.575Z,88.08
2022-10-09T06:31:27.697Z,86.82
2022-10-09T06:33:55.361Z,87.52
2022-10-09T06:36:25.186Z,86.75
2022-10-09T06:38:54.131Z,86.21
2022-10-09T06:41:25.673Z,85.93
2022-10-09T06:44:00.927Z,85.12
2022-10-09T06:46:36.499Z,85.39
2022-10-09T06:49:05.852Z,83.53
2022-10-09T06:51:40.833Z,84.32
2022-10-09T06:54:12.835Z,83.41
2022-10-09T06:56:40.092Z,83.34
2022-10-09T06:59:07.664Z,83.76
2022-10-09T07:01:34.797Z,83.31
2022-10-09T07:04:07.327Z,81.81
2022-10-09T07:06:37.961Z,80.78
2022-10-09T07:09:07.408Z,79.44
2022-10-09T07:11:36.641Z,79.55
2022-10-09T07:14:05.850Z,79.57
2022-10-09T07:16:38.644Z,78.82
2022-10-09T07:19:08.181Z,77.57
2022-10-09T07:21:35.659Z,76.52
2022-10-09T07:24:03.934Z,76.03
2022-10-09T07:26:32.490Z,75.17
2022-10-09T07:28:59.963Z,74.92
2022-10-09T07:31:27.021Z,74.79
2022-10-09T07:33:56.568Z,73.79
2022-10-09T07:36:23.827Z,73.41
2022-10-09T07:38:55.323Z,71.83
2022-10-09T07:41:24.617Z,72.26
2022-10-09T07:43:51.537Z,71.14
2022-10-09T07:46:20.522Z,71.30
2022-10-09T07:48:47.918Z,71.05
2022-10-09T07:51:26.141Z,70.75
2022-10-09T07:53:53.712Z,69.56
2022-10-09T07:56:22.534Z,69.90
2022-10-09T07:58:54.259Z,69.48
2022-10-09T08:01:22.337Z,69.13
2022-10-09T08:03:49.704Z,68.77
2022-10-09T08:06:17.091Z,66.12
2022-10-09T08:08:44.143Z,67.33
2022-10-09T08:11:12.863Z,66.81
2022-10-09T08:13:40.244Z,66.74
2022-10-09T08:16:07.316Z,65.47
2022-10-09T08:18:34.578Z,65.87
2022-10-09T08:21:06.543Z,65.52
2022-10-09T08:23:33.589Z,65.19
2022-10-09T08:26:08.766Z,63.42
2022-10-09T08:28:36.342Z,62.72
2022-10-09T08:31:13.306Z,60.38
2022-10-09T08:33:40.691Z,61.43
2022-10-09T08:36:09.689Z,61.71
2022-10-09T08:38:47.062Z,61.68
2022-10-09T08:41:27.774Z,61.28
2022-10-09T08:44:05.339Z,59.68
2022-10-09T08:54:01.191Z,59.56
2022-10-09T08:56:29.390Z,58.94
2022-10-09T08:58:56.278Z,59.41
2022-10-09T09:01:29.447Z,58.71
2022-10-09T09:04:14.976Z,55.19
2022-10-09T09:06:47.885Z,54.99
2022-10-09T09:09:34.109Z,54.54
2022-10-09T09:12:07.261Z,55.04
2022-10-09T09:14:57.186Z,55.05
2022-10-09T09:17:44.243Z,54.15
2022-10-09T09:20:36.416Z,54.22
2022-10-09T09:23:03.341Z,52.13
2022-10-09T09:25:35.396Z,52.36
2022-10-09T09:28:14.196Z,51.89
2022-10-09T09:30:50.925Z,51.83
2022-10-09T09:33:45.442Z,52.54
2022-10-09T09:36:22.928Z,53.07
2022-10-09T09:39:35.093Z,52.01
2022-10-09T09:41:37.669Z,52.10
2022-10-09T09:44:05.207Z,52.32
2022-10-09T09:46:32.542Z,52.43
2022-10-09T09:48:59.418Z,50.80
2022-10-09T09:51:29.644Z,51.67
2022-10-09T09:54:03.745Z,50.89
2022-10-09T09:57:11.061Z,51.89
2022-10-09T09:59:36.501Z,50.82
2022-10-09T10:02:05.981Z,49.23
2022-10-09T10:04:32.968Z,50.29
2022-10-09T10:06:59.800Z,50.11
2022-10-09T10:09:27.188Z,48.96
2022-10-09T10:12:03.468Z,48.52
2022-10-09T10:14:31.945Z,49.33
2022-10-09T10:17:00.547Z,48.90
2022-10-09T10:19:34.946Z,49.44
2022-10-09T10:22:06.659Z,47.69
2022-10-09T10:24:45.010Z,47.77
2022-10-09T10:27:24.754Z,47.47
2022-10-09T10:30:05.199Z,47.16
2022-10-09T10:32:53.740Z,46.34
2022-10-09T10:35:24.328Z,46.67
2022-10-09T10:38:10.197Z,46.47
2022-10-09T10:40:57.269Z,46.50
2022-10-09T10:43:30.156Z,46.29
2022-10-09T10:46:08.857Z,46.43
2022-10-09T10:48:47.016Z,46.84
2022-10-09T10:51:13.869Z,47.50
2022-10-09T10:53:58.266Z,46.69
2022-10-09T10:56:37.801Z,45.20
2022-10-09T10:59:26.218Z,44.61
2022-10-09T11:02:10.029Z,45.53
2022-10-09T11:04:39.530Z,43.84
2022-10-09T11:07:41.771Z,44.86
2022-10-09T11:10:25.528Z,43.34
2022-10-09T11:12:55.309Z,44.29
2022-10-09T11:15:47.859Z,42.82
2022-10-09T11:18:56.096Z,42.64
2022-10-09T11:22:03.148Z,44.54
2022-10-09T11:24:52.978Z,45.93
2022-10-09T11:27:40.152Z,45.38
2022-10-09T11:30:11.985Z,44.53
2022-10-09T11:32:42.889Z,44.59
2022-10-09T11:35:12.680Z,45.68
2022-10-09T11:37:41.180Z,45.73
2022-10-09T11:40:21.030Z,45.91
2022-10-09T11:43:00.131Z,45.98
2022-10-09T11:45:35.987Z,46.07
2022-10-09T11:48:16.293Z,46.31
2022-10-09T11:50:59.422Z,46.44
2022-10-09T11:53:28.290Z,45.54
2022-10-09T11:56:09.059Z,46.75
2022-10-09T11:58:36.266Z,46.80
2022-10-09T12:01:19.965Z,46.53
2022-10-09T12:03:46.891Z,46.09
2022-10-09T12:06:16.214Z,46.00
2022-10-09T12:09:01.084Z,44.86
2022-10-09T12:11:28.336Z,45.91
2022-10-09T12:14:00.647Z,45.45
2022-10-09T12:16:46.592Z,45.46
2022-10-09T12:19:24.473Z,43.71
2022-10-09T12:22:06.771Z,44.54
2022-10-09T12:24:45.912Z,44.89
2022-10-09T12:27:28.045Z,45.16
2022-10-09T12:29:57.901Z,45.56
2022-10-09T12:32:35.591Z,45.60
2022-10-09T12:35:20.676Z,45.49
2022-10-09T12:37:47.543Z,45.12
2022-10-09T12:40:17.960Z,46.35
2022-10-09T12:42:45.152Z,46.51
2022-10-09T12:45:25.681Z,46.73
2022-10-09T12:47:53.702Z,48.01
2022-10-09T12:50:25.011Z,47.27
2022-10-09T12:53:04.054Z,46.79
2022-10-09T12:55:31.712Z,47.07
2022-10-09T12:58:15.573Z,47.19
2022-10-09T13:00:42.759Z,46.67
2022-10-09T13:03:27.038Z,46.51
2022-10-09T13:05:53.879Z,45.51
2022-10-09T13:08:25.523Z,46.68
2022-10-09T13:10:52.865Z,46.32
2022-10-09T13:13:26.145Z,47.04
2022-10-09T13:16:01.629Z,46.37
2022-10-09T13:18:28.883Z,46.54
2022-10-09T13:21:31.434Z,46.76
2022-10-09T13:24:11.985Z,46.90
2022-10-09T13:26:39.709Z,47.36
2022-10-09T13:29:07.223Z,47.48
2022-10-09T13:31:36.596Z,47.66
2022-10-09T13:34:13.691Z,47.58
2022-10-09T13:36:40.698Z,47.10
2022-10-09T13:39:14.516Z,47.35
2022-10-09T13:41:42.909Z,47.51
2022-10-09T13:44:09.886Z,46.60
2022-10-09T13:46:36.940Z,47.84
2022-10-09T13:49:04.115Z,48.17
2022-10-09T13:51:32.053Z,47.98
2022-10-09T13:53:59.256Z,48.44
2022-10-09T13:56:26.274Z,47.62
2022-10-09T13:58:53.357Z,46.88
2022-10-09T14:01:20.273Z,47.06
2022-10-09T14:03:47.223Z,47.59
2022-10-09T14:06:14.097Z,47.70
2022-10-09T14:08:41.001Z,48.04
2022-10-09T14:11:07.890Z,48.60
2022-10-09T14:13:34.697Z,49.06
2022-10-09T14:16:05.984Z,48.91
2022-10-09T14:18:33.383Z,48.81
2022-10-09T14:21:00.211Z,48.78
2022-10-09T14:25:53.844Z,48.74
2022-10-09T14:28:20.797Z,48.88
2022-10-09T14:30:47.939Z,50.20
2022-10-09T14:33:18.508Z,49.80
2022-10-09T14:35:52.231Z,50.03
2022-10-09T14:38:20.220Z,50.56
2022-10-09T14:40:47.138Z,50.10
2022-10-09T14:43:13.964Z,51.05
2022-10-09T14:45:41.114Z,51.54
2022-10-09T14:48:08.009Z,52.07
2022-10-09T14:50:36.460Z,52.62
2022-10-09T14:53:07.255Z,53.39
2022-10-09T14:55:35.176Z,54.18
2022-10-09T14:58:02.035Z,54.45
2022-10-09T15:00:28.883Z,54.87
2022-10-09T15:02:58.958Z,56.76
2022-10-09T15:05:26.628Z,56.34
2022-10-09T15:07:53.487Z,56.66
2022-10-09T15:10:20.323Z,57.47
2022-10-09T15:12:47.189Z,58.23
2022-10-09T15:15:14.081Z,59.26
2022-10-09T15:17:41.044Z,60.35
2022-10-09T15:20:08.358Z,61.42
2022-10-09T15:22:35.269Z,62.59
2022-10-09T15:25:02.042Z,63.65
2022-10-09T15:27:28.976Z,64.59
2022-10-09T15:29:56.656Z,65.05
2022-10-09T15:32:24.213Z,65.55
2022-10-09T15:34:51.043Z,66.20
2022-10-09T15:37:18.398Z,66.72
2022-10-09T15:39:46.466Z,67.23
2022-10-09T15:42:13.219Z,67.35
2022-10-09T15:44:41.597Z,67.48
2022-10-09T15:47:08.552Z,67.56
2022-10-09T15:49:35.388Z,67.76
2022-10-09T15:52:02.251Z,68.20
2022-10-09T15:54:29.111Z,68.79
2022-10-09T15:56:56.029Z,69.19
2022-10-09T15:59:22.996Z,69.47
2022-10-09T16:01:50.169Z,69.56
2022-10-09T16:04:17.118Z,69.70
2022-10-09T16:06:44.079Z,70.27
2022-10-09T16:09:11.348Z,70.30
2022-10-09T16:11:38.361Z,70.46
2022-10-09T16:14:05.133Z,70.80
2022-10-09T16:16:31.940Z,71.38
2022-10-09T16:19:00.157Z,72.01
2022-10-09T16:21:28.439Z,72.65
2022-10-09T16:23:58.855Z,73.20
2022-10-09T16:26:27.939Z,73.52
2022-10-09T16:28:59.620Z,73.90
2022-10-09T16:31:34.698Z,74.28
2022-10-09T16:34:02.500Z,74.70
2022-10-09T16:36:29.476Z,74.88
2022-10-09T16:38:57.660Z,75.13
2022-10-09T16:41:25.300Z,75.22
2022-10-09T16:43:54.170Z,75.29
2022-10-09T16:49:01.473Z,75.32
2022-10-09T16:51:35.197Z,74.85
2022-10-09T16:54:04.143Z,74.51
2022-10-09T16:56:33.858Z,74.56
2022-10-09T16:59:03.625Z,74.54
2022-10-09T17:01:30.970Z,74.22
2022-10-09T17:03:59.223Z,73.95
2022-10-09T17:06:26.656Z,73.78
2022-10-09T17:08:55.887Z,73.40
2022-10-09T17:11:23.198Z,73.39
2022-10-09T17:13:50.498Z,73.40
2022-10-09T17:16:24.062Z,73.49
2022-10-09T17:18:51.418Z,73.71
2022-10-09T17:21:18.723Z,74.17
2022-10-09T17:23:46.651Z,74.67
2022-10-09T17:26:17.021Z,74.76
2022-10-09T17:28:44.407Z,75.10
2022-10-09T17:31:16.469Z,75.48
2022-10-09T17:33:46.109Z,75.53
2022-10-09T17:36:15.745Z,75.62
2022-10-09T17:38:42.793Z,75.73
2022-10-09T17:41:11.676Z,75.88
2022-10-09T17:43:39.004Z,76.32
2022-10-09T17:46:06.363Z,76.78
2022-10-09T17:48:34.655Z,77.07
2022-10-09T17:51:04.092Z,77.29
2022-10-09T17:53:31.693Z,77.69
2022-10-09T17:56:03.150Z,79.15
2022-10-09T17:58:30.052Z,78.72
2022-10-09T18:00:56.936Z,78.76
2022-10-09T18:03:24.181Z,78.49
2022-10-09T18:05:51.434Z,78.11
2022-10-09T18:08:19.519Z,78.39
2022-10-09T18:10:46.670Z,78.38
2022-10-09T18:13:13.492Z,78.25
2022-10-09T18:15:42.439Z,77.59
2022-10-09T18:18:10.108Z,77.92
2022-10-09T18:20:38.543Z,78.23
2022-10-09T18:23:06.311Z,78.61
2022-10-09T18:25:33.441Z,78.70
2022-10-09T18:28:00.417Z,79.32
2022-10-09T18:30:27.822Z,79.37
2022-10-09T18:32:54.893Z,78.99
2022-10-09T18:35:22.052Z,78.74
2022-10-09T18:37:48.885Z,78.59
2022-10-09T18:40:15.739Z,78.74
2022-10-09T18:42:42.583Z,78.68
2022-10-09T18:45:10.508Z,78.62
2022-10-09T18:47:37.310Z,78.21
2022-10-09T18:50:08.239Z,78.17
2022-10-09T18:52:37.481Z,78.93
2022-10-09T18:55:06.856Z,78.87
2022-10-09T18:57:34.316Z,77.55
2022-10-09T19:00:02.154Z,78.57
2022-10-09T19:02:29.200Z,78.63
2022-10-09T19:04:57.312Z,78.64
2022-10-09T19:07:24.945Z,77.15
2022-10-09T19:09:56.993Z,77.23
2022-10-09T19:12:24.596Z,77.62
2022-10-09T19:14:51.638Z,75.93
2022-10-09T19:17:18.788Z,75.96
2022-10-09T19:19:45.751Z,75.79
2022-10-09T19:22:16.477Z,72.73
2022-10-09T19:24:45.253Z,71.95
2022-10-09T19:27:12.146Z,70.50
2022-10-09T19:29:39.091Z,71.42
2022-10-09T19:32:06.213Z,69.39
2022-10-09T19:34:33.075Z,70.92
2022-10-09T19:36:59.946Z,70.57
2022-10-09T19:39:27.910Z,69.94
2022-10-09T19:41:54.735Z,69.51
2022-10-09T19:44:21.757Z,69.64
2022-10-09T19:46:48.675Z,70.12
2022-10-09T19:49:16.585Z,68.70
2022-10-09T19:51:43.776Z,67.17
2022-10-09T19:54:10.858Z,68.11
2022-10-09T19:56:38.527Z,68.79
2022-10-09T19:59:07.170Z,68.95
2022-10-09T20:01:35.490Z,70.06
2022-10-09T20:04:05.187Z,69.80
2022-10-09T20:06:32.165Z,70.43
2022-10-09T20:08:59.339Z,70.75
2022-10-09T20:11:26.720Z,70.52
2022-10-09T20:13:56.168Z,70.16
2022-10-09T20:16:23.933Z,69.85
2022-10-09T20:18:51.755Z,69.83
2022-10-09T20:21:19.549Z,70.41
2022-10-09T20:23:46.442Z,70.20
2022-10-09T20:26:17.998Z,69.99
2022-10-09T20:28:46.864Z,69.02
2022-10-09T20:31:18.035Z,68.87
2022-10-09T20:33:46.069Z,67.79
2022-10-09T20:36:21.784Z,68.29
2022-10-09T20:38:48.902Z,68.51
2022-10-09T20:41:15.854Z,68.87
2022-10-09T20:43:42.807Z,69.16
2022-10-09T20:46:14.252Z,68.69
2022-10-09T20:48:41.814Z,68.92
2022-10-09T20:51:09.835Z,68.92
2022-10-09T20:53:36.679Z,68.68
2022-10-09T20:56:06.085Z,68.07
2022-10-09T20:58:33.753Z,67.74
2022-10-09T21:01:00.841Z,67.30
2022-10-09T21:03:27.741Z,66.76
2022-10-09T21:05:54.696Z,66.59
2022-10-09T21:08:21.481Z,67.01
2022-10-09T21:10:50.161Z,67.34
2022-10-09T21:13:17.318Z,66.83
2022-10-09T21:15:46.946Z,66.38
2022-10-09T21:18:15.003Z,66.65
2022-10-09T21:20:43.376Z,66.48
2022-10-09T21:23:11.266Z,66.79
2022-10-09T21:25:38.473Z,66.46
2022-10-09T21:28:05.671Z,66.56
2022-10-09T21:30:41.208Z,66.59
2022-10-09T21:33:09.316Z,66.24
2022-10-09T21:35:44.426Z,65.54
2022-10-09T21:38:19.667Z,65.04
2022-10-09T21:40:47.585Z,65.79
2022-10-09T21:43:14.399Z,66.05
2022-10-09T21:45:41.391Z,66.32
2022-10-09T21:48:08.400Z,66.75
2022-10-09T21:50:36.488Z,67.07
2022-10-09T21:53:03.680Z,67.17
2022-10-09T21:55:30.439Z,68.03
2022-10-09T21:57:57.298Z,67.36
2022-10-09T22:00:24.169Z,67.90
2022-10-09T22:02:51.176Z,67.93
2022-10-09T22:05:18.482Z,68.22
2022-10-09T22:07:45.324Z,68.65
2022-10-09T22:10:12.291Z,69.22
2022-10-09T22:12:39.442Z,69.57
2022-10-09T22:15:06.632Z,70.37
2022-10-09T22:17:33.483Z,70.79
2022-10-09T22:20:00.403Z,70.43
2022-10-09T22:22:27.339Z,70.41
2022-10-09T22:24:54.112Z,70.93
2022-10-09T22:27:20.891Z,71.26
2022-10-09T22:29:47.687Z,71.42
2022-10-09T22:32:14.427Z,71.38
2022-10-09T22:34:41.252Z,71.11
2022-10-09T22:37:08.073Z,70.69
2022-10-09T22:39:34.990Z,70.64
2022-10-09T22:42:01.853Z,70.79
2022-10-09T22:44:28.849Z,70.80
2022-10-09T22:46:55.698Z,70.20
2022-10-09T22:49:22.484Z,69.69
2022-10-09T22:51:49.294Z,69.60
2022-10-09T22:54:16.148Z,69.67
2022-10-09T22:56:46.605Z,69.51
2022-10-09T22:59:16.428Z,69.19
2022-10-09T23:01:48.174Z,68.37
2022-10-09T23:04:16.716Z,68.19
2022-10-09T23:06:44.316Z,67.57
2022-10-09T23:09:13.214Z,67.45
2022-10-09T23:11:40.115Z,66.94
2022-10-09T23:14:07.299Z,66.85
2022-10-09T23:16:34.311Z,66.63
2022-10-09T23:19:06.186Z,66.60
2022-10-09T23:21:34.464Z,66.62
2022-10-09T23:24:01.307Z,66.89
2022-10-09T23:26:30.293Z,67.17
2022-10-09T23:29:00.009Z,67.52
2022-10-09T23:31:27.836Z,67.84
2022-10-09T23:33:55.437Z,68.31
2022-10-09T23:36:24.298Z,68.87
2022-10-09T23:38:51.573Z,69.55
2022-10-09T23:41:21.600Z,70.17
2022-10-09T23:43:48.946Z,70.52
2022-10-09T23:46:18.382Z,70.89
2022-10-09T23:48:45.631Z,71.43
2022-10-09T23:51:14.131Z,71.82
2022-10-09T23:53:41.677Z,72.38
2022-10-09T23:56:32.568Z,72.87
2022-10-09T23:59:01.050Z,73.50
